Time;durP1;ratioP1;P1;durP2;ratioP2;P2;SDS_P1;SDS_P2;PMS_P1;PMS_P2;Temp;Humidity;BMP_temperature;BMP_pressure;BME280_temperature;BME280_humidity;BME280_pressure;Samples;Min_cycle;Max_cycle;Signal;HPM_P1;HPM_P2
2022/05/01 00:00:36;;;;;;;4.90;2.03;;;;;;;11.59;79.15;101405.75;5149770;28;20026;-76
2022/05/01 00:03:06;;;;;;;4.82;2.40;;;;;;;11.69;78.44;101402.00;5151775;28;20031;-76
2022/05/01 00:05:37;;;;;;;4.95;2.22;;;;;;;11.60;79.26;101407.47;5150380;28;20078;-76
2022/05/01 00:08:07;;;;;;;7.57;2.20;;;;;;;11.52;79.54;101403.28;5152351;28;20222;-76
2022/05/01 00:10:37;;;;;;;7.97;2.22;;;;;;;11.54;79.37;101406.72;5149955;28;20057;-76
2022/05/01 00:13:08;;;;;;;4.07;2.40;;;;;;;11.57;79.73;101407.53;5152108;28;20023;-76
2022/05/01 00:15:38;;;;;;;4.80;2.30;;;;;;;11.59;79.43;101410.13;5154812;28;20347;-76
2022/05/01 00:18:08;;;;;;;4.33;2.30;;;;;;;11.60;80.07;101412.69;5145239;28;20039;-76
2022/05/01 00:20:38;;;;;;;4.28;2.47;;;;;;;11.53;79.25;101416.34;5154465;28;20318;-77
2022/05/01 00:23:09;;;;;;;5.47;2.30;;;;;;;11.34;80.20;101425.56;5149481;28;20026;-76
2022/05/01 00:25:41;;;;;;;5.97;2.40;;;;;;;11.33;80.17;101421.25;5150942;28;20190;-76
2022/05/01 00:28:13;;;;;;;4.72;2.70;;;;;;;11.43;79.55;101419.25;5151343;28;20061;-76
2022/05/01 00:30:43;;;;;;;4.72;2.60;;;;;;;11.42;80.48;101420.16;5145536;28;20033;-77
2022/05/01 00:38:56;;;;;;;3.92;2.22;;;;;;;11.49;78.97;101413.84;5150739;28;20038;-76
2022/05/01 00:41:27;;;;;;;3.67;2.47;;;;;;;11.50;78.02;101419.06;5152112;28;20258;-76
2022/05/01 00:43:58;;;;;;;7.90;2.60;;;;;;;11.48;79.06;101423.44;5153632;28;20057;-76
2022/05/01 00:46:31;;;;;;;4.13;2.15;;;;;;;11.54;78.11;101415.44;5151997;28;20026;-76
2022/05/01 00:49:04;;;;;;;7.10;2.67;;;;;;;11.63;78.92;101417.00;5146337;28;20026;-76
2022/05/01 00:52:00;;;;;;;4.72;2.40;;;;;;;11.67;76.76;101414.25;5146365;28;20425;-77
2022/05/01 00:54:31;;;;;;;8.82;2.72;;;;;;;11.54;77.43;101418.06;5148172;28;20035;-76
2022/05/01 00:57:04;;;;;;;4.00;2.60;;;;;;;11.65;77.12;101418.66;5151821;28;20034;-76
2022/05/01 00:59:36;;;;;;;5.68;2.58;;;;;;;11.55;77.45;101419.78;5153287;28;20033;-77
2022/05/01 01:02:06;;;;;;;5.35;2.42;;;;;;;11.48;77.93;101418.19;5147913;28;20027;-77
2022/05/01 01:04:37;;;;;;;4.05;2.30;;;;;;;11.53;77.72;101421.59;5150457;28;20366;-76
2022/05/01 01:07:07;;;;;;;4.18;2.30;;;;;;;11.44;78.33;101413.94;5148691;28;20560;-76
2022/05/01 01:09:38;;;;;;;5.50;2.25;;;;;;;11.41;78.93;101411.41;5150556;28;20030;-77
2022/05/01 01:15:11;;;;;;;4.38;2.47;;;;;;;11.31;79.88;101409.91;5152755;28;20113;-77
2022/05/01 01:17:43;;;;;;;8.30;2.65;;;;;;;11.41;79.49;101411.41;5136041;28;20250;-77
2022/05/01 01:20:17;;;;;;;6.75;2.75;;;;;;;11.51;78.36;101412.91;5144415;28;20030;-77
2022/05/01 01:22:50;;;;;;;5.35;2.47;;;;;;;11.42;78.81;101407.06;5150580;28;20035;-77
2022/05/01 01:25:24;;;;;;;5.35;2.65;;;;;;;11.41;78.90;101414.03;5148833;28;20030;-77
2022/05/01 01:27:57;;;;;;;4.68;2.47;;;;;;;11.05;79.83;101412.34;5153640;28;20084;-76
2022/05/01 01:33:26;;;;;;;6.65;2.47;;;;;;;11.14;80.49;101412.09;5147981;28;20093;-76
2022/05/01 01:36:02;;;;;;;5.68;2.40;;;;;;;10.96;81.34;101416.06;5151618;28;20051;-77
2022/05/01 01:38:32;;;;;;;5.63;2.80;;;;;;;11.13;80.96;101420.84;5148201;28;20035;-76
2022/05/01 01:41:08;;;;;;;8.30;2.83;;;;;;;11.00;82.56;101410.72;5150835;28;20046;-76
2022/05/01 01:43:42;;;;;;;4.78;2.47;;;;;;;11.12;81.59;101426.13;5152069;28;20540;-76
2022/05/01 01:46:12;;;;;;;6.65;2.63;;;;;;;11.26;80.41;101414.41;5149517;28;20110;-77
2022/05/01 01:48:44;;;;;;;5.10;2.72;;;;;;;11.08;81.80;101419.25;5148962;28;20482;-76
2022/05/01 01:51:14;;;;;;;6.45;2.40;;;;;;;11.24;81.17;101418.00;5147661;28;20026;-76
2022/05/01 01:53:44;;;;;;;7.50;2.65;;;;;;;11.30;79.95;101413.44;5157370;28;20401;-76
2022/05/01 01:56:15;;;;;;;4.60;2.60;;;;;;;11.25;81.21;101422.31;5149033;28;20157;-77
2022/05/01 01:58:45;;;;;;;4.93;2.70;;;;;;;11.25;80.51;101417.94;5149204;28;20027;-77
2022/05/01 02:01:16;;;;;;;5.10;2.75;;;;;;;11.16;81.05;101426.03;5149052;28;20044;-77
2022/05/01 02:03:46;;;;;;;4.10;2.50;;;;;;;11.09;81.35;101429.66;5150057;28;20272;-77
2022/05/01 02:06:18;;;;;;;6.35;2.60;;;;;;;11.21;80.88;101423.28;5148678;28;20084;-77
2022/05/01 02:08:49;;;;;;;5.60;2.53;;;;;;;11.29;79.98;101430.03;5149903;28;20064;-77
2022/05/01 02:11:20;;;;;;;3.80;2.33;;;;;;;11.17;80.09;101417.28;5148373;28;20263;-77
2022/05/01 02:13:50;;;;;;;6.00;2.40;;;;;;;11.15;81.00;101423.44;5153855;28;20644;-77
2022/05/01 02:16:20;;;;;;;4.88;2.75;;;;;;;11.02;80.78;101409.81;5154139;28;20026;-76
2022/05/01 02:18:50;;;;;;;6.47;2.50;;;;;;;11.09;81.00;101419.22;5159947;28;20045;-76
2022/05/01 02:21:36;;;;;;;4.40;2.60;;;;;;;11.16;80.82;101414.69;5155959;28;20308;-76
2022/05/01 02:24:12;;;;;;;4.57;2.70;;;;;;;11.32;79.88;101416.91;5154495;28;20281;-76
2022/05/01 02:26:42;;;;;;;5.57;2.60;;;;;;;11.32;81.00;101416.03;5153201;28;20027;-76
2022/05/01 02:29:13;;;;;;;6.10;2.95;;;;;;;11.13;80.75;101414.78;5153727;28;20029;-76
2022/05/01 02:31:44;;;;;;;5.13;2.80;;;;;;;10.96;81.60;101416.06;5153104;28;20034;-76
2022/05/01 02:34:15;;;;;;;8.23;3.08;;;;;;;10.98;81.24;101419.50;5153212;28;20026;-76
2022/05/01 02:36:45;;;;;;;4.97;2.60;;;;;;;11.09;81.41;101420.97;5150326;28;20027;-76
2022/05/01 02:39:16;;;;;;;9.20;2.70;;;;;;;11.13;81.57;101417.38;5154076;28;20032;-76
2022/05/01 02:41:46;;;;;;;6.40;2.38;;;;;;;11.23;80.96;101418.88;5153682;28;20313;-76
2022/05/01 02:44:16;;;;;;;5.43;2.90;;;;;;;11.17;79.92;101422.50;5157171;28;20132;-76
2022/05/01 02:46:46;;;;;;;4.30;2.60;;;;;;;11.13;80.63;101431.31;5152473;28;20030;-76
2022/05/01 02:49:17;;;;;;;9.43;3.08;;;;;;;11.17;80.68;101426.88;5150030;28;20069;-76
2022/05/01 02:51:48;;;;;;;5.72;2.58;;;;;;;11.18;80.40;101421.63;5153702;28;20125;-76
2022/05/01 02:54:18;;;;;;;3.97;2.50;;;;;;;11.06;81.32;101416.66;5158430;28;20057;-76
2022/05/01 02:56:51;;;;;;;3.53;2.60;;;;;;;11.01;80.76;101420.28;5154946;28;20038;-76
2022/05/01 02:59:22;;;;;;;5.50;3.00;;;;;;;10.94;82.44;101415.25;5151775;28;20073;-76
2022/05/01 03:01:53;;;;;;;5.60;2.95;;;;;;;10.91;82.12;101407.47;5153454;28;20030;-77
2022/05/01 03:04:24;;;;;;;4.78;2.78;;;;;;;10.84;83.28;101417.22;5151346;28;20395;-76
2022/05/01 03:06:54;;;;;;;6.93;3.20;;;;;;;10.64;84.44;101416.81;5153536;28;20030;-76
2022/05/01 03:09:24;;;;;;;6.88;3.15;;;;;;;10.64;84.59;101418.53;5151230;28;20212;-76
2022/05/01 03:11:55;;;;;;;4.77;2.70;;;;;;;10.84;83.95;101406.75;5153870;28;20531;-76
2022/05/01 03:14:25;;;;;;;3.80;2.60;;;;;;;10.84;83.98;101414.59;5154196;28;20760;-76
2022/05/01 03:16:55;;;;;;;4.20;2.92;;;;;;;10.77;84.33;101410.41;5153052;28;20575;-76
2022/05/01 03:22:15;;;;;;;6.97;2.80;;;;;;;10.74;84.64;101396.53;5151513;28;20236;-76
2022/05/01 03:24:45;;;;;;;6.07;2.83;;;;;;;10.69;84.89;101401.03;5152175;28;20034;-76
2022/05/01 03:27:15;;;;;;;5.15;2.75;;;;;;;10.68;84.79;101402.75;5152333;28;20031;-76
2022/05/01 03:30:15;;;;;;;4.30;2.70;;;;;;;10.56;85.23;101402.19;5151733;28;20061;-76
2022/05/01 03:32:36;;;;;;;5.85;2.97;;;;;;;10.40;86.10;101404.28;5151586;28;20258;-76
2022/05/01 03:35:07;;;;;;;5.70;2.97;;;;;;;10.38;86.78;101400.81;5153609;28;20032;-76
2022/05/01 03:37:37;;;;;;;6.28;2.95;;;;;;;10.39;86.17;101401.69;5151229;28;20189;-76
2022/05/01 03:40:09;;;;;;;4.75;2.70;;;;;;;10.52;86.03;101403.16;5152824;28;20116;-76
2022/05/01 03:42:40;;;;;;;5.65;3.05;;;;;;;10.49;86.22;101411.91;5134204;28;20166;-76
2022/05/01 03:45:10;;;;;;;5.97;2.72;;;;;;;10.64;84.73;101408.09;5157223;28;20108;-77
2022/05/01 03:47:41;;;;;;;5.97;2.97;;;;;;;10.77;83.92;101399.94;5147854;28;20124;-76
2022/05/01 03:50:11;;;;;;;4.95;2.65;;;;;;;10.78;82.81;101398.19;5148090;28;20034;-76
2022/05/01 03:52:42;;;;;;;5.68;2.70;;;;;;;10.85;82.77;101402.41;5152128;28;20647;-76
2022/05/01 03:55:12;;;;;;;3.90;2.38;;;;;;;10.74;82.24;101400.03;5151313;28;20045;-76
2022/05/01 03:57:43;;;;;;;5.03;2.47;;;;;;;10.81;82.44;101400.72;5151397;28;20499;-77
2022/05/01 04:00:18;;;;;;;5.45;2.92;;;;;;;10.79;81.85;101398.16;5151352;28;20110;-76
2022/05/01 04:02:48;;;;;;;5.38;3.00;;;;;;;10.76;83.05;101407.81;5149858;28;20050;-76
2022/05/01 04:05:18;;;;;;;6.93;2.80;;;;;;;10.65;83.26;101409.84;5152177;28;20469;-76
2022/05/01 04:07:49;;;;;;;5.37;2.77;;;;;;;10.96;82.57;101402.97;5150131;28;20030;-76
2022/05/01 04:10:19;;;;;;;5.15;2.80;;;;;;;10.81;82.69;101416.41;5151574;28;20277;-77
2022/05/01 04:12:49;;;;;;;7.07;3.10;;;;;;;10.69;84.88;101409.72;5150029;28;20030;-77
2022/05/01 04:15:20;;;;;;;5.53;2.85;;;;;;;10.64;83.74;101400.25;5153432;28;20503;-76
2022/05/01 04:17:50;;;;;;;4.93;2.85;;;;;;;10.64;84.52;101402.88;5147542;28;20050;-76
2022/05/01 04:20:20;;;;;;;4.53;2.80;;;;;;;10.41;85.66;101405.13;5155431;28;20240;-76
2022/05/01 04:22:52;;;;;;;5.85;3.30;;;;;;;10.61;83.55;101416.00;5153146;28;20293;-76
2022/05/01 04:25:24;;;;;;;5.45;2.90;;;;;;;10.69;84.19;101408.88;5149899;28;20022;-76
2022/05/01 04:28:09;;;;;;;4.93;2.92;;;;;;;10.60;84.24;101414.28;5151590;28;20022;-76
2022/05/01 04:30:40;;;;;;;6.68;2.80;;;;;;;10.69;84.50;101411.47;5150219;28;20022;-76
2022/05/01 04:33:13;;;;;;;6.97;2.88;;;;;;;10.80;83.64;101414.69;5150272;28;20282;-76
2022/05/01 04:35:46;;;;;;;5.53;2.95;;;;;;;10.75;84.42;101420.06;5150799;28;20422;-76
2022/05/01 04:38:21;;;;;;;6.68;3.30;;;;;;;11.03;83.55;101403.66;5149973;28;20377;-76
2022/05/01 04:40:58;;;;;;;7.07;3.47;;;;;;;11.02;82.86;101410.69;5151789;28;20550;-76
2022/05/01 04:43:30;;;;;;;5.80;3.13;;;;;;;10.79;83.25;101418.19;5148849;28;20492;-76
2022/05/01 04:46:00;;;;;;;4.85;2.90;;;;;;;10.68;85.05;101423.69;5152937;28;20061;-76
2022/05/01 04:48:30;;;;;;;6.03;3.17;;;;;;;10.71;84.70;101414.91;5146940;28;20113;-76
2022/05/01 04:51:00;;;;;;;6.97;3.50;;;;;;;10.65;85.25;101422.91;5152594;28;20547;-76
2022/05/01 04:53:31;;;;;;;5.25;3.08;;;;;;;10.70;85.42;101421.03;5151976;28;20766;-76
2022/05/01 04:57:05;;;;;;;6.03;2.97;;;;;;;10.96;84.65;101431.75;5152522;28;20058;-77
2022/05/01 04:58:51;;;;;;;7.03;3.35;;;;;;;10.84;84.56;101429.44;5149807;28;20098;-76
2022/05/01 05:01:21;;;;;;;5.40;3.08;;;;;;;10.88;84.18;101431.09;5150785;28;20507;-76
2022/05/01 05:03:52;;;;;;;5.88;3.40;;;;;;;10.89;84.06;101435.41;5148964;28;20031;-76
2022/05/01 05:06:23;;;;;;;6.43;3.45;;;;;;;10.58;85.72;101434.38;5151471;28;20072;-76
2022/05/01 05:11:43;;;;;;;8.73;3.70;;;;;;;10.34;88.24;101425.31;5150075;28;20122;-77
2022/05/01 05:14:13;;;;;;;5.63;3.28;;;;;;;10.70;87.10;101434.13;5151791;28;20101;-76
2022/05/01 05:16:44;;;;;;;6.20;3.35;;;;;;;10.75;85.98;101430.50;5155515;28;20097;-76
2022/05/01 05:19:14;;;;;;;5.63;3.33;;;;;;;10.92;84.96;101436.22;5152062;28;20029;-76
2022/05/01 05:21:45;;;;;;;6.30;3.15;;;;;;;10.87;85.44;101422.38;5148904;28;20033;-77
2022/05/01 05:24:15;;;;;;;5.60;3.08;;;;;;;11.02;85.25;101435.97;5156815;28;20113;-76
2022/05/01 05:26:45;;;;;;;5.80;3.20;;;;;;;11.11;84.64;101433.09;5148446;28;20499;-76
2022/05/01 05:29:15;;;;;;;6.75;3.53;;;;;;;11.17;85.17;101443.44;5151355;28;20704;-76
2022/05/01 05:31:46;;;;;;;6.70;3.40;;;;;;;10.96;84.72;101437.84;5132565;28;20026;-76
2022/05/01 05:34:16;;;;;;;6.20;3.30;;;;;;;11.05;84.13;101438.50;5154339;28;20105;-76
2022/05/01 05:36:47;;;;;;;6.07;3.55;;;;;;;10.87;85.17;101440.66;5153678;28;20539;-76
2022/05/01 05:39:17;;;;;;;8.32;3.95;;;;;;;11.00;84.87;101441.28;5150000;28;20030;-76
2022/05/01 05:41:47;;;;;;;6.47;3.75;;;;;;;11.07;84.00;101447.16;5153247;28;20045;-76
2022/05/01 05:44:18;;;;;;;7.63;3.83;;;;;;;10.99;84.63;101450.84;5152605;28;20030;-76
2022/05/01 05:46:48;;;;;;;6.87;3.93;;;;;;;11.07;85.65;101444.56;5152768;28;20158;-76
2022/05/01 05:49:18;;;;;;;8.57;3.70;;;;;;;10.85;86.42;101452.09;5147771;28;20289;-76
2022/05/01 05:51:49;;;;;;;8.55;3.75;;;;;;;10.91;87.10;101455.41;5154478;28;20030;-77
2022/05/01 05:54:19;;;;;;;7.88;3.65;;;;;;;11.12;86.71;101450.53;5135310;28;20014;-76
2022/05/01 05:56:49;;;;;;;6.80;4.00;;;;;;;11.06;86.25;101455.03;5152414;28;20473;-76
2022/05/01 05:59:19;;;;;;;8.05;3.83;;;;;;;10.92;87.86;101461.50;5154627;28;20084;-76
2022/05/01 06:01:50;;;;;;;8.70;3.97;;;;;;;10.97;86.20;101470.09;5152311;28;20553;-76
2022/05/01 06:04:20;;;;;;;7.93;3.70;;;;;;;11.02;86.57;101464.72;5154416;28;20052;-76
2022/05/01 06:06:50;;;;;;;8.70;4.18;;;;;;;11.03;87.70;101468.19;5151846;28;20081;-76
2022/05/01 06:09:20;;;;;;;7.70;3.88;;;;;;;11.04;88.01;101477.75;5154206;28;20392;-76
2022/05/01 06:11:51;;;;;;;10.10;4.00;;;;;;;11.04;88.82;101478.63;5152673;28;20031;-76
2022/05/01 06:14:21;;;;;;;8.07;3.97;;;;;;;10.95;87.63;101477.09;5153697;28;20022;-76
2022/05/01 06:16:51;;;;;;;7.78;4.05;;;;;;;10.87;87.59;101472.03;5153870;28;20034;-76
2022/05/01 06:19:21;;;;;;;6.97;3.75;;;;;;;10.88;88.05;101475.53;5149643;28;20034;-76
2022/05/01 06:21:52;;;;;;;10.13;3.85;;;;;;;10.82;88.80;101471.31;5154011;28;20469;-76
2022/05/01 06:24:22;;;;;;;12.48;4.55;;;;;;;10.95;88.56;101470.13;5153419;28;20189;-76
2022/05/01 06:26:53;;;;;;;7.43;4.22;;;;;;;10.91;88.36;101470.22;5156954;28;20033;-76
2022/05/01 06:29:23;;;;;;;7.97;3.93;;;;;;;10.86;88.23;101477.34;5153983;28;20022;-76
2022/05/01 06:31:54;;;;;;;12.90;4.30;;;;;;;11.12;89.32;101468.84;5151281;28;20286;-76
2022/05/01 06:34:24;;;;;;;9.77;4.25;;;;;;;11.11;90.16;101474.97;5152060;28;20481;-76
2022/05/01 06:36:54;;;;;;;6.60;4.22;;;;;;;11.23;90.12;101477.31;5154074;28;20054;-76
2022/05/01 06:39:25;;;;;;;8.57;4.18;;;;;;;11.33;91.31;101473.59;5151786;28;20059;-76
2022/05/01 06:41:55;;;;;;;10.18;4.10;;;;;;;11.35;90.46;101477.03;5157841;28;20061;-76
2022/05/01 06:44:25;;;;;;;9.57;4.30;;;;;;;11.23;91.12;101484.28;5153839;28;20031;-76
2022/05/01 06:46:56;;;;;;;10.32;4.60;;;;;;;11.48;91.36;101482.81;5153910;28;20030;-76
2022/05/01 06:49:26;;;;;;;7.47;3.93;;;;;;;11.42;90.35;101481.19;5155340;28;20026;-76
2022/05/01 06:51:56;;;;;;;8.13;4.03;;;;;;;11.17;91.10;101482.69;5153359;28;20814;-77
2022/05/01 06:54:26;;;;;;;7.60;3.80;;;;;;;11.22;91.54;101478.19;5154350;28;20026;-77
2022/05/01 06:56:57;;;;;;;6.07;3.90;;;;;;;11.19;90.76;101473.03;5156111;28;20281;-76
2022/05/01 06:59:27;;;;;;;8.20;4.25;;;;;;;10.90;89.08;101478.97;5150301;28;20316;-77
2022/05/01 07:01:57;;;;;;;9.55;4.05;;;;;;;10.82;91.27;101473.06;5152527;28;20104;-76
2022/05/01 07:04:27;;;;;;;11.57;4.57;;;;;;;10.91;93.13;101478.06;5150099;28;20113;-76
2022/05/01 07:06:58;;;;;;;7.75;4.28;;;;;;;10.88;93.95;101471.16;5154330;28;20281;-77
2022/05/01 07:09:28;;;;;;;8.82;4.07;;;;;;;11.17;92.74;101480.06;5150989;28;20039;-77
2022/05/01 07:11:58;;;;;;;9.80;4.15;;;;;;;11.33;91.87;101478.81;5154678;28;20397;-76
2022/05/01 07:14:29;;;;;;;7.28;4.20;;;;;;;11.30;91.36;101473.63;5158129;28;20026;-76
2022/05/01 07:16:59;;;;;;;9.10;4.40;;;;;;;11.33;92.65;101476.19;5153148;28;20026;-77
2022/05/01 07:19:29;;;;;;;7.13;4.13;;;;;;;11.29;90.92;101485.00;5155056;28;20312;-77
2022/05/01 07:22:00;;;;;;;9.18;4.20;;;;;;;11.02;92.37;101486.56;5151677;28;20058;-76
2022/05/01 07:24:30;;;;;;;7.15;4.05;;;;;;;11.30;92.91;101486.72;5148111;28;20038;-77
2022/05/01 07:27:00;;;;;;;8.13;3.72;;;;;;;11.34;91.50;101488.38;5153859;28;20026;-77
2022/05/01 07:29:30;;;;;;;6.37;3.90;;;;;;;11.42;90.69;101491.66;5149527;28;20574;-77
2022/05/01 07:32:01;;;;;;;8.07;3.95;;;;;;;11.27;92.13;101489.41;5154621;28;20875;-77
2022/05/01 07:34:31;;;;;;;8.15;3.97;;;;;;;11.68;91.00;101486.69;5153634;28;20030;-77
2022/05/01 07:37:02;;;;;;;6.15;3.80;;;;;;;11.78;90.20;101476.84;5151623;28;20026;-77
2022/05/01 07:39:32;;;;;;;9.40;3.83;;;;;;;11.75;88.67;101488.22;5150915;28;20054;-77
2022/05/01 07:42:03;;;;;;;10.27;3.80;;;;;;;11.67;87.10;101492.81;5146892;28;20053;-77
2022/05/01 07:44:33;;;;;;;9.25;3.63;;;;;;;11.92;87.34;101488.66;5155155;28;20476;-78
2022/05/01 07:47:03;;;;;;;9.93;3.92;;;;;;;11.63;86.81;101490.31;5147544;28;20027;-77
2022/05/01 07:49:34;;;;;;;7.38;3.63;;;;;;;11.68;88.40;101494.53;5154614;28;20034;-78
2022/05/01 07:52:04;;;;;;;7.18;3.88;;;;;;;11.71;88.99;101491.84;5153535;28;20634;-77
2022/05/01 07:54:35;;;;;;;9.23;3.78;;;;;;;11.68;88.31;101486.69;5145915;28;20022;-77
2022/05/01 07:57:07;;;;;;;8.65;4.18;;;;;;;11.74;87.11;101483.91;5151499;28;20492;-77
2022/05/01 07:59:37;;;;;;;9.18;3.50;;;;;;;11.87;87.55;101482.69;5151712;28;20476;-78
2022/05/01 08:02:07;;;;;;;9.05;3.88;;;;;;;11.97;86.29;101486.75;5149061;28;20029;-77
2022/05/01 08:04:38;;;;;;;10.45;4.28;;;;;;;11.99;87.86;101482.34;5147973;28;20023;-77
2022/05/01 08:07:09;;;;;;;7.37;3.90;;;;;;;11.87;86.37;101487.94;5145578;28;20030;-77
2022/05/01 08:09:40;;;;;;;8.55;4.03;;;;;;;12.00;87.81;101480.59;5148627;28;20328;-77
2022/05/01 08:12:10;;;;;;;9.05;3.90;;;;;;;11.97;87.81;101489.38;5156250;28;20054;-77
2022/05/01 08:14:41;;;;;;;7.32;3.75;;;;;;;11.93;86.53;101482.50;5150898;28;20192;-78
2022/05/01 08:17:12;;;;;;;8.30;4.05;;;;;;;11.84;86.59;101495.88;5147947;28;20125;-77
2022/05/01 08:22:31;;;;;;;9.10;4.18;;;;;;;12.03;86.48;101497.09;5150817;28;20574;-77
2022/05/01 08:25:01;;;;;;;6.72;3.83;;;;;;;12.01;86.12;101488.44;5143896;28;20022;-77
2022/05/01 08:27:32;;;;;;;7.88;4.10;;;;;;;11.91;86.92;101486.06;5149158;28;20243;-77
2022/05/01 08:30:02;;;;;;;11.45;4.50;;;;;;;11.88;87.70;101484.41;5134377;28;20034;-78
2022/05/01 08:33:18;;;;;;;9.63;3.97;;;;;;;11.57;87.75;101491.31;5149759;28;20047;-77
2022/05/01 08:35:49;;;;;;;12.85;4.22;;;;;;;11.65;88.06;101488.50;5148694;28;20124;-78
2022/05/01 08:38:20;;;;;;;7.75;4.10;;;;;;;11.78;87.64;101488.16;5152676;28;20457;-77
2022/05/01 08:40:52;;;;;;;7.40;4.07;;;;;;;11.85;91.07;101487.13;5150845;28;20395;-78
2022/05/01 08:43:24;;;;;;;10.15;4.10;;;;;;;11.66;90.24;101488.50;5153562;28;20030;-78
2022/05/01 08:46:19;;;;;;;11.60;4.07;;;;;;;12.00;90.51;101491.94;5135949;28;20037;-78
2022/05/01 08:49:05;;;;;;;9.20;4.43;;;;;;;12.06;90.57;101494.41;5147892;28;20030;-78
2022/05/01 08:51:39;;;;;;;;;;;;;;;12.16;91.78;101495.00;5148845;28;20141;-78
2022/05/01 08:54:11;;;;;;;7.82;4.50;;;;;;;12.07;91.18;101498.72;5149151;28;20598;-78
2022/05/01 08:56:43;;;;;;;9.63;4.03;;;;;;;12.19;90.33;101490.53;5146389;28;20112;-78
2022/05/01 08:59:15;;;;;;;9.32;4.22;;;;;;;12.46;90.60;101496.78;5149884;28;20026;-78
2022/05/01 09:01:46;;;;;;;8.70;3.80;;;;;;;12.33;88.47;101496.25;5146850;28;20091;-78
2022/05/01 09:04:16;;;;;;;7.70;3.92;;;;;;;12.27;88.12;101492.97;5154017;28;20061;-78
2022/05/01 09:06:46;;;;;;;9.38;4.03;;;;;;;12.36;87.54;101484.81;5148121;28;20042;-78
2022/05/01 09:09:19;;;;;;;7.75;4.07;;;;;;;12.45;86.42;101492.44;5148897;28;20045;-78
2022/05/01 09:14:42;;;;;;;7.88;3.60;;;;;;;12.30;88.02;101509.44;5150747;28;20027;-78
2022/05/01 09:17:18;;;;;;;7.28;3.78;;;;;;;12.60;87.87;101502.50;5148035;28;20042;-78
2022/05/01 09:19:49;;;;;;;;;;;;;;;12.58;84.87;101502.53;5145224;28;20544;-78
2022/05/01 09:22:21;;;;;;;8.30;3.83;;;;;;;12.63;85.93;101500.63;5147890;28;19914;-78
2022/05/01 09:24:55;;;;;;;6.93;3.83;;;;;;;12.55;86.47;101497.38;5155505;28;20034;-77
2022/05/01 09:27:31;;;;;;;8.00;3.65;;;;;;;12.72;84.98;101497.75;5151809;28;20034;-77
2022/05/01 09:30:22;;;;;;;10.00;4.07;;;;;;;12.45;86.15;101495.06;5154609;28;20038;-78
2022/05/01 09:32:54;;;;;;;7.30;3.83;;;;;;;12.81;86.49;101494.81;5153990;28;20038;-78
2022/05/01 09:35:31;;;;;;;8.85;3.90;;;;;;;12.94;84.40;101493.59;5155712;28;20029;-78
2022/05/01 09:38:19;;;;;;;10.50;3.95;;;;;;;12.88;83.30;101501.63;5154444;28;20058;-78
2022/05/01 09:40:54;;;;;;;7.70;3.75;;;;;;;12.90;81.79;101494.56;5151231;28;20034;-78
2022/05/01 09:43:43;;;;;;;6.47;3.47;;;;;;;12.46;84.54;101502.88;5150495;28;20125;-78
2022/05/01 09:46:15;;;;;;;7.57;3.67;;;;;;;12.16;87.85;101497.63;5152910;28;20285;-78
2022/05/01 09:49:03;;;;;;;7.75;3.78;;;;;;;12.75;85.78;101497.66;5150685;28;20575;-78
2022/05/01 09:51:48;;;;;;;6.85;3.38;;;;;;;12.93;84.46;101505.00;5150743;28;20110;-78
2022/05/01 09:54:23;;;;;;;12.07;5.07;;;;;;;13.43;83.26;101496.41;5130942;28;20042;-78
2022/05/01 09:57:04;;;;;;;8.82;3.45;;;;;;;12.81;76.61;101502.69;5148408;28;20050;-79
2022/05/01 09:59:46;;;;;;;6.70;2.72;;;;;;;12.86;76.22;101498.19;5147038;28;20064;-78
2022/05/01 10:02:30;;;;;;;6.72;3.00;;;;;;;12.70;75.84;101494.31;5148652;28;20030;-78
2022/05/01 10:05:03;;;;;;;6.22;2.97;;;;;;;12.86;75.89;101500.81;5148440;28;20113;-78
2022/05/01 10:07:40;;;;;;;8.25;3.38;;;;;;;13.20;75.85;101488.41;5147873;28;20396;-78
2022/05/01 10:10:11;;;;;;;6.35;3.00;;;;;;;12.85;78.03;101485.94;5150925;28;20039;-78
2022/05/01 10:12:45;;;;;;;6.63;2.75;;;;;;;12.74;74.87;101490.69;5145654;28;20145;-78
2022/05/01 10:15:16;;;;;;;6.72;2.78;;;;;;;12.78;74.26;101488.84;5151733;28;20045;-78
2022/05/01 10:17:48;;;;;;;6.45;2.60;;;;;;;12.97;74.17;101476.91;5152567;28;20899;-78
2022/05/01 10:20:20;;;;;;;4.95;2.30;;;;;;;13.23;69.83;101477.81;5150801;28;20047;-78
2022/05/01 10:22:51;;;;;;;5.45;2.50;;;;;;;13.34;68.12;101481.78;5153323;28;20089;-78
2022/05/01 10:25:22;;;;;;;4.40;2.20;;;;;;;13.43;68.81;101470.13;5147895;28;20473;-78
2022/05/01 10:27:59;;;;;;;3.95;2.30;;;;;;;13.82;67.68;101464.41;5149837;28;20034;-78
2022/05/01 10:34:07;;;;;;;5.25;2.40;;;;;;;13.60;68.31;101473.06;5152197;28;20085;-79
2022/05/01 10:37:10;;;;;;;6.70;3.05;;;;;;;13.68;67.70;101473.66;5147879;28;20038;-78
2022/05/01 10:39:42;;;;;;;6.80;2.30;;;;;;;13.89;66.75;101467.69;5148105;28;20170;-78
2022/05/01 10:42:31;;;;;;;5.90;2.30;;;;;;;13.82;67.23;101469.66;5149750;28;20030;-78
2022/05/01 10:45:02;;;;;;;4.97;2.50;;;;;;;13.84;68.04;101461.69;5150163;28;20034;-78
2022/05/01 10:47:40;;;;;;;3.58;2.38;;;;;;;14.02;68.00;101456.66;5147594;28;20693;-78
2022/05/01 10:50:11;;;;;;;4.50;2.20;;;;;;;14.41;66.33;101454.41;5148611;28;20041;-79
2022/05/01 10:53:00;;;;;;;5.50;2.30;;;;;;;14.27;67.71;101461.94;5150636;28;20374;-79
2022/05/01 10:55:48;;;;;;;5.60;2.88;;;;;;;14.70;66.08;101451.50;5149241;28;20393;-78
2022/05/01 10:58:26;;;;;;;5.50;2.50;;;;;;;14.63;65.38;101452.69;5150612;28;20034;-79
2022/05/01 11:00:57;;;;;;;7.60;2.30;;;;;;;15.02;64.03;101458.09;5153320;28;20381;-79
2022/05/01 11:03:30;;;;;;;5.88;2.30;;;;;;;15.13;64.19;101452.41;5153784;28;20106;-79
2022/05/01 11:06:02;;;;;;;4.30;2.50;;;;;;;15.00;65.63;101446.78;5151482;28;20042;-79
2022/05/01 11:08:36;;;;;;;5.25;2.42;;;;;;;15.61;63.68;101432.84;5149167;28;20484;-78
2022/05/01 11:11:11;;;;;;;11.75;5.15;;;;;;;15.40;64.43;101446.91;5152555;28;20055;-78
2022/05/01 11:13:41;;;;;;;9.20;4.60;;;;;;;15.88;63.85;101425.53;5149724;28;20123;-79
2022/05/01 11:16:11;;;;;;;7.72;2.95;;;;;;;15.63;62.13;101428.38;5160239;28;20081;-78
2022/05/01 11:18:42;;;;;;;6.18;2.88;;;;;;;15.85;63.06;101423.88;5148741;28;20026;-79
2022/05/01 11:21:21;;;;;;;3.90;2.20;;;;;;;15.12;64.08;101419.97;5152186;28;20137;-79
2022/05/01 11:24:02;;;;;;;3.53;2.22;;;;;;;15.61;64.33;101419.66;5149325;28;20023;-79
2022/05/01 11:26:33;;;;;;;7.38;3.03;;;;;;;15.84;59.53;101419.53;5151695;28;20107;-79
2022/05/01 11:29:13;;;;;;;3.15;1.85;;;;;;;15.54;56.85;101412.09;5152743;28;20023;-81
2022/05/01 11:31:45;;;;;;;4.95;1.90;;;;;;;15.88;53.77;101413.19;5149351;28;20108;-79
2022/05/01 11:34:15;;;;;;;4.80;2.20;;;;;;;16.18;54.67;101403.91;5150886;28;20030;-79
2022/05/01 11:37:01;;;;;;;9.63;3.47;;;;;;;16.23;56.47;101407.19;5134536;28;20042;-78
2022/05/01 11:39:47;;;;;;;15.65;5.68;;;;;;;15.95;56.51;101405.88;5152397;28;20507;-79
2022/05/01 11:42:32;;;;;;;11.13;3.72;;;;;;;16.44;56.02;101408.91;5154151;28;20485;-78
2022/05/01 11:45:04;;;;;;;7.35;3.55;;;;;;;16.09;55.71;101404.34;5151413;28;20093;-79
2022/05/01 11:47:35;;;;;;;3.20;1.70;;;;;;;16.19;53.79;101407.44;5150241;28;20084;-78
2022/05/01 11:50:06;;;;;;;3.28;1.73;;;;;;;16.18;54.12;101400.44;5144395;28;20042;-79
2022/05/01 11:52:36;;;;;;;7.30;2.53;;;;;;;15.86;54.39;101404.50;5147794;28;20039;-78
2022/05/01 11:55:08;;;;;;;4.57;1.83;;;;;;;16.02;55.04;101388.88;5151770;28;20678;-78
2022/05/01 12:03:16;;;;;;;7.68;2.22;;;;;;;15.84;52.85;101393.16;5168800;28;20045;-78
2022/05/01 12:05:48;;;;;;;3.50;1.80;;;;;;;15.88;53.76;101386.81;5155404;28;20041;-78
2022/05/01 12:08:21;;;;;;;4.22;1.83;;;;;;;16.13;52.41;101382.19;5149568;28;20282;-78
2022/05/01 12:10:52;;;;;;;3.83;2.10;;;;;;;16.30;51.85;101384.91;5153561;28;20093;-78
2022/05/01 12:13:27;;;;;;;3.45;2.10;;;;;;;15.97;53.43;101383.78;5150025;28;20041;-78
2022/05/01 12:15:58;;;;;;;3.30;2.10;;;;;;;15.53;53.65;101394.56;5151745;28;20153;-78
2022/05/01 12:18:28;;;;;;;3.83;2.20;;;;;;;15.26;55.55;101386.03;5152988;28;20381;-77
2022/05/01 12:20:59;;;;;;;4.32;1.95;;;;;;;14.73;56.56;101383.00;5145987;28;20045;-77